Time;durP1;ratioP1;P1;durP2;ratioP2;P2;SDS_P1;SDS_P2;PMS_P1;PMS_P2;Temp;Humidity;BMP_temperature;BMP_pressure;BME280_temperature;BME280_humidity;BME280_pressure;Samples;Min_cycle;Max_cycle;Signal;HPM_P1;HPM_P2
2023/11/30 00:00:05;;;;;;;6.72;4.10;;;0.50;99.90;;;;;;4978844;28;20026;-56
2023/11/30 00:02:32;;;;;;;6.60;4.10;;;0.50;99.90;;;;;;4978479;28;20397;-57
2023/11/30 00:04:57;;;;;;;6.80;4.90;;;0.50;99.90;;;;;;4977118;28;20058;-58
2023/11/30 00:07:23;;;;;;;6.93;4.63;;;0.50;99.90;;;;;;4980247;28;20065;-56
2023/11/30 00:09:48;;;;;;;7.05;4.63;;;0.50;99.90;;;;;;4980211;28;20122;-56
2023/11/30 00:12:14;;;;;;;7.15;4.85;;;0.50;99.90;;;;;;4981035;28;20073;-56
2023/11/30 00:14:40;;;;;;;6.85;4.28;;;0.50;99.90;;;;;;4980774;28;20520;-58
2023/11/30 00:17:05;;;;;;;7.72;4.80;;;0.50;99.90;;;;;;4981152;28;20011;-58
2023/11/30 00:19:31;;;;;;;6.78;4.00;;;0.40;99.90;;;;;;4982806;28;20027;-58
2023/11/30 00:21:56;;;;;;;7.72;4.88;;;0.40;99.90;;;;;;4979683;28;20053;-56
2023/11/30 00:24:22;;;;;;;7.95;4.63;;;0.40;99.90;;;;;;4977115;28;20022;-58
2023/11/30 00:26:47;;;;;;;7.20;4.65;;;0.30;99.90;;;;;;4980757;28;20097;-57
2023/11/30 00:29:13;;;;;;;8.60;4.80;;;0.20;99.90;;;;;;4980868;28;20030;-57
2023/11/30 00:31:38;;;;;;;9.00;5.05;;;0.10;99.90;;;;;;4982532;28;20569;-58
2023/11/30 00:34:04;;;;;;;6.93;4.57;;;-0.10;99.90;;;;;;4978604;28;20034;-58
2023/11/30 00:36:29;;;;;;;6.20;4.13;;;-0.20;99.90;;;;;;4975791;28;20514;-59
2023/11/30 00:38:55;;;;;;;7.38;4.80;;;-0.40;99.90;;;;;;4980485;28;20022;-59
2023/11/30 00:41:20;;;;;;;6.63;4.30;;;-0.50;99.90;;;;;;4980702;28;20030;-57
2023/11/30 00:43:46;;;;;;;6.38;4.45;;;-0.70;99.90;;;;;;4976114;28;20120;-55
2023/11/30 00:46:14;;;;;;;6.35;3.72;;;-0.80;99.90;;;;;;4982169;28;20108;-60
2023/11/30 00:48:45;;;;;;;6.25;3.78;;;-0.90;99.90;;;;;;4978341;28;20057;-61
2023/11/30 00:51:11;;;;;;;6.13;3.97;;;-1.00;99.90;;;;;;4982131;28;20030;-61
2023/11/30 00:53:37;;;;;;;5.47;3.78;;;-1.10;99.90;;;;;;4980246;28;20026;-60
2023/11/30 00:56:03;;;;;;;4.72;3.17;;;-1.20;99.90;;;;;;4980585;28;20049;-60
2023/11/30 00:58:29;;;;;;;7.15;3.95;;;-1.20;99.90;;;;;;4980215;28;20364;-60
2023/11/30 01:00:54;;;;;;;6.25;3.85;;;-1.30;99.90;;;;;;4980323;28;20729;-61
2023/11/30 01:03:20;;;;;;;5.78;3.45;;;-1.20;99.90;;;;;;4980157;28;20034;-59
2023/11/30 01:05:45;;;;;;;5.80;3.65;;;-1.20;99.90;;;;;;4981589;28;20026;-61
2023/11/30 01:08:14;;;;;;;4.68;3.35;;;-1.10;99.90;;;;;;4980359;28;20033;-61
2023/11/30 01:10:41;;;;;;;6.00;3.55;;;-1.10;99.90;;;;;;4980173;28;20050;-60
2023/11/30 01:13:06;;;;;;;5.45;3.38;;;-0.90;99.90;;;;;;4980135;28;20109;-61
2023/11/30 01:15:32;;;;;;;4.25;3.05;;;-0.90;99.90;;;;;;4979975;28;20157;-60
2023/11/30 01:17:58;;;;;;;4.53;2.90;;;-0.80;99.90;;;;;;4980197;28;20026;-61
2023/11/30 01:20:23;;;;;;;4.50;3.03;;;-0.70;99.90;;;;;;4981872;28;20578;-61
2023/11/30 01:22:49;;;;;;;5.65;4.15;;;-0.70;99.90;;;;;;4977714;28;20106;-61
2023/11/30 01:25:15;;;;;;;6.68;3.97;;;-0.60;99.90;;;;;;4979336;28;20034;-61
2023/11/30 01:27:40;;;;;;;6.05;3.85;;;-0.60;99.90;;;;;;4980174;28;20390;-60
2023/11/30 01:30:06;;;;;;;6.22;3.25;;;-0.60;99.90;;;;;;4979953;28;20113;-61
2023/11/30 01:32:33;;;;;;;6.97;3.90;;;-0.50;99.90;;;;;;4979963;28;20037;-60
2023/11/30 01:34:58;;;;;;;5.32;3.95;;;-0.50;99.90;;;;;;4979256;28;20030;-60
2023/11/30 01:37:24;;;;;;;7.82;4.32;;;-0.50;99.90;;;;;;4973724;28;20034;-60
2023/11/30 01:39:49;;;;;;;5.88;3.78;;;-0.50;99.90;;;;;;4981680;28;20097;-61
2023/11/30 01:42:15;;;;;;;7.75;4.60;;;-0.50;99.90;;;;;;4978552;28;20072;-60
2023/11/30 01:44:40;;;;;;;6.93;4.65;;;-0.50;99.90;;;;;;4979567;28;20062;-61
2023/11/30 01:47:06;;;;;;;6.70;4.18;;;-0.40;99.90;;;;;;4979758;28;20023;-61
2023/11/30 01:49:32;;;;;;;9.60;5.07;;;-0.50;99.90;;;;;;4978169;28;20410;-60
2023/11/30 01:51:59;;;;;;;7.93;4.78;;;-0.50;99.90;;;;;;4979998;28;20399;-61
2023/11/30 01:54:25;;;;;;;8.10;4.88;;;-0.50;99.90;;;;;;4979644;28;20066;-60
2023/11/30 01:56:52;;;;;;;8.93;4.53;;;-0.50;99.90;;;;;;4981485;28;20038;-61
2023/11/30 01:59:18;;;;;;;10.00;5.60;;;-0.60;99.90;;;;;;4979540;28;20103;-61
2023/11/30 02:01:44;;;;;;;11.77;5.60;;;-0.70;99.90;;;;;;4975645;28;20033;-60
2023/11/30 02:04:15;;;;;;;8.15;4.78;;;-0.80;99.90;;;;;;4979618;28;20030;-60
2023/11/30 02:06:44;;;;;;;8.18;4.75;;;-0.90;99.90;;;;;;4979382;28;20034;-60
2023/11/30 02:09:11;;;;;;;7.78;4.63;;;-1.00;99.90;;;;;;4979486;28;20510;-60
2023/11/30 02:11:38;;;;;;;7.30;4.35;;;-1.10;99.90;;;;;;4979353;28;20310;-61
2023/11/30 02:14:04;;;;;;;6.70;4.72;;;-1.20;99.90;;;;;;4979537;28;20042;-60
2023/11/30 02:16:29;;;;;;;8.63;4.55;;;-1.40;99.90;;;;;;4981220;28;20093;-62
2023/11/30 02:18:55;;;;;;;8.43;4.60;;;-1.50;99.90;;;;;;4982304;28;20038;-61
2023/11/30 02:21:20;;;;;;;7.63;4.43;;;-1.60;99.90;;;;;;4979052;28;20413;-59
2023/11/30 02:23:49;;;;;;;9.10;4.88;;;-1.60;99.90;;;;;;4982830;28;20019;-60
2023/11/30 02:26:16;;;;;;;10.27;5.50;;;-1.70;99.90;;;;;;4982778;28;20549;-60
2023/11/30 02:28:42;;;;;;;8.15;4.40;;;-1.70;99.90;;;;;;4982780;28;20034;-61
2023/11/30 02:31:08;;;;;;;8.57;4.88;;;-1.70;99.90;;;;;;4982571;28;20398;-60
2023/11/30 02:33:33;;;;;;;9.48;5.13;;;-1.70;99.90;;;;;;4984448;28;20034;-60
2023/11/30 02:35:59;;;;;;;7.50;3.95;;;-1.60;99.90;;;;;;4982158;28;20094;-60
2023/11/30 02:38:24;;;;;;;8.18;5.03;;;-1.60;99.90;;;;;;4976245;28;20026;-60
2023/11/30 02:40:50;;;;;;;9.40;5.18;;;-1.60;99.90;;;;;;4978388;28;20113;-61
2023/11/30 02:43:15;;;;;;;10.80;5.95;;;-1.50;99.90;;;;;;4982423;28;20022;-60
2023/11/30 02:45:40;;;;;;;10.63;5.63;;;-1.50;99.90;;;;;;4984033;28;20057;-61
2023/11/30 02:48:06;;;;;;;9.07;5.40;;;-1.40;99.90;;;;;;4982426;28;20027;-61
2023/11/30 02:50:31;;;;;;;7.68;4.47;;;-1.40;99.90;;;;;;4982184;28;20525;-61
2023/11/30 02:52:57;;;;;;;12.93;5.22;;;-1.30;99.90;;;;;;4982497;28;20034;-60
2023/11/30 02:55:23;;;;;;;8.35;4.65;;;-1.20;99.90;;;;;;4981103;28;20026;-60
2023/11/30 02:57:49;;;;;;;7.80;5.00;;;-1.20;99.90;;;;;;4982261;28;20031;-60
2023/11/30 03:00:15;;;;;;;8.13;4.72;;;-1.10;99.90;;;;;;4982317;28;20038;-60
2023/11/30 03:02:40;;;;;;;10.77;5.80;;;-1.10;99.90;;;;;;4984107;28;20406;-61
2023/11/30 03:05:06;;;;;;;9.93;5.45;;;-1.10;99.90;;;;;;4982175;28;20026;-61
2023/11/30 03:07:32;;;;;;;9.02;5.20;;;-1.00;99.90;;;;;;4982094;28;20516;-62
2023/11/30 03:09:57;;;;;;;12.30;6.38;;;-1.00;99.90;;;;;;4982044;28;20034;-60
2023/11/30 03:12:23;;;;;;;10.10;4.97;;;-0.90;99.90;;;;;;4982020;28;20046;-60
2023/11/30 03:14:48;;;;;;;9.45;5.45;;;-0.90;99.90;;;;;;4983915;28;20026;-61
2023/11/30 03:17:14;;;;;;;10.13;5.70;;;-0.80;99.90;;;;;;4982096;28;20022;-60
2023/11/30 03:19:40;;;;;;;11.43;6.15;;;-0.80;99.90;;;;;;4981661;28;20520;-61
2023/11/30 03:22:05;;;;;;;9.30;5.28;;;-0.80;99.90;;;;;;4981914;28;20096;-61
2023/11/30 03:24:31;;;;;;;10.68;6.03;;;-0.80;99.90;;;;;;4980636;28;20026;-60
2023/11/30 03:26:56;;;;;;;7.35;4.78;;;-0.70;99.90;;;;;;4981664;28;20026;-59
2023/11/30 03:29:22;;;;;;;8.60;4.53;;;-0.70;99.90;;;;;;4981033;28;20039;-60
2023/11/30 03:31:47;;;;;;;11.18;5.97;;;-0.80;99.90;;;;;;4983530;28;20038;-61
2023/11/30 03:34:13;;;;;;;11.93;6.50;;;-0.80;99.90;;;;;;4981545;28;20031;-60
2023/11/30 03:36:39;;;;;;;11.23;6.80;;;-0.90;99.90;;;;;;4978382;28;20093;-64
2023/11/30 03:39:05;;;;;;;8.93;5.47;;;-0.90;99.90;;;;;;4981876;28;20026;-63
2023/11/30 03:41:30;;;;;;;11.15;5.57;;;-0.90;99.90;;;;;;4981564;28;20081;-64
2023/11/30 03:43:56;;;;;;;11.63;6.10;;;-0.90;99.90;;;;;;4981328;28;20087;-63
2023/11/30 03:46:26;;;;;;;12.13;6.45;;;-0.90;99.90;;;;;;4983163;28;20077;-64
2023/11/30 03:48:56;;;;;;;11.38;6.57;;;-0.90;99.90;;;;;;4979404;28;20026;-64
2023/11/30 03:51:21;;;;;;;12.77;6.50;;;-1.00;99.90;;;;;;4981128;28;20069;-63
2023/11/30 03:53:47;;;;;;;11.63;6.10;;;-1.10;99.90;;;;;;4981277;28;20513;-64
2023/11/30 03:56:13;;;;;;;11.77;5.53;;;-1.10;99.90;;;;;;4981122;28;20033;-65
2023/11/30 03:58:38;;;;;;;12.70;7.10;;;-1.10;99.90;;;;;;4981004;28;20076;-64
2023/11/30 04:01:05;;;;;;;10.77;6.00;;;-1.10;99.90;;;;;;4980985;28;20101;-63
2023/11/30 04:03:31;;;;;;;11.43;6.07;;;-1.10;99.90;;;;;;4980983;28;20037;-63
2023/11/30 04:05:56;;;;;;;11.38;5.85;;;-1.20;99.90;;;;;;4982636;28;20034;-64
2023/11/30 04:08:22;;;;;;;10.57;5.50;;;-1.20;99.90;;;;;;4976802;28;20082;-63
2023/11/30 04:10:47;;;;;;;11.65;6.03;;;-1.20;99.90;;;;;;4980932;28;20030;-64
2023/11/30 04:13:12;;;;;;;8.98;5.07;;;-1.20;99.90;;;;;;4980783;28;20044;-64
2023/11/30 04:15:38;;;;;;;13.05;6.72;;;-1.20;99.90;;;;;;4980627;28;20030;-63
2023/11/30 04:18:03;;;;;;;10.70;6.28;;;-1.20;99.90;;;;;;4981649;28;20101;-64
2023/11/30 04:20:29;;;;;;;12.80;5.72;;;-1.30;99.90;;;;;;4978500;28;20077;-63
2023/11/30 04:22:54;;;;;;;16.10;6.40;;;-1.20;99.90;;;;;;4980970;28;20026;-64
2023/11/30 04:25:20;;;;;;;13.25;6.30;;;-1.30;99.90;;;;;;4980604;28;20092;-64
2023/11/30 04:27:45;;;;;;;11.50;6.00;;;-1.30;99.90;;;;;;4980596;28;20034;-64
2023/11/30 04:30:11;;;;;;;12.88;5.88;;;-1.30;99.90;;;;;;4980214;28;20117;-64
2023/11/30 04:32:36;;;;;;;11.80;6.18;;;-1.30;99.90;;;;;;4982323;28;20026;-64
2023/11/30 04:35:02;;;;;;;12.60;6.57;;;-1.30;99.90;;;;;;4980440;28;20018;-64
2023/11/30 04:37:27;;;;;;;12.80;6.30;;;-1.30;99.90;;;;;;4968586;28;20042;-64
2023/11/30 04:39:53;;;;;;;12.68;6.85;;;-1.30;99.90;;;;;;4979813;28;20058;-64
2023/11/30 04:42:18;;;;;;;13.23;6.57;;;-1.30;99.90;;;;;;4980288;28;20022;-64
2023/11/30 04:44:44;;;;;;;13.95;6.63;;;-1.40;99.90;;;;;;4980569;28;20074;-64
2023/11/30 04:47:09;;;;;;;14.95;6.95;;;-1.40;99.90;;;;;;4978343;28;20490;-65
2023/11/30 04:49:35;;;;;;;12.93;7.07;;;-1.50;99.90;;;;;;4977651;28;20117;-64
2023/11/30 04:52:00;;;;;;;13.43;7.10;;;-1.60;99.90;;;;;;4979738;28;20077;-64
2023/11/30 04:54:26;;;;;;;14.43;6.82;;;-1.70;99.90;;;;;;4980367;28;20042;-64
2023/11/30 04:56:51;;;;;;;13.38;6.72;;;-1.80;99.90;;;;;;4980205;28;20097;-64
2023/11/30 04:59:17;;;;;;;13.68;6.60;;;-1.90;99.90;;;;;;4980250;28;20414;-64
2023/11/30 05:01:42;;;;;;;13.85;6.88;;;-2.10;99.90;;;;;;4982112;28;20026;-64
2023/11/30 05:04:08;;;;;;;16.83;7.15;;;-2.20;99.90;;;;;;4980228;28;20057;-63
2023/11/30 05:06:34;;;;;;;16.77;7.95;;;-2.30;99.90;;;;;;4978887;28;20645;-64
2023/11/30 05:08:59;;;;;;;19.45;9.55;;;-2.40;99.90;;;;;;4980309;28;20041;-64
2023/11/30 05:11:25;;;;;;;16.25;8.57;;;-2.60;99.90;;;;;;4980024;28;20414;-63
2023/11/30 05:13:50;;;;;;;16.65;9.07;;;-2.70;99.90;;;;;;4976201;28;20027;-63
2023/11/30 05:16:16;;;;;;;16.40;8.50;;;-2.80;99.90;;;;;;4980047;28;20061;-63
2023/11/30 05:18:41;;;;;;;12.85;6.75;;;-2.90;99.90;;;;;;4982052;28;20076;-64
2023/11/30 05:21:07;;;;;;;18.90;8.55;;;-3.00;99.90;;;;;;4979900;28;20042;-64
2023/11/30 05:23:33;;;;;;;17.77;8.65;;;-3.20;99.90;;;;;;4979998;28;20046;-64
2023/11/30 05:25:58;;;;;;;15.25;8.15;;;-3.30;99.90;;;;;;4980155;28;20097;-64
2023/11/30 05:28:24;;;;;;;15.55;8.27;;;-3.30;99.90;;;;;;4979959;28;20041;-63
2023/11/30 05:30:49;;;;;;;21.63;8.48;;;-3.40;99.90;;;;;;4980019;28;20394;-63
2023/11/30 05:33:16;;;;;;;14.05;7.40;;;-3.50;99.90;;;;;;4977320;28;20062;-64
2023/11/30 05:35:41;;;;;;;15.30;7.72;;;-3.60;99.90;;;;;;4979707;28;20117;-64
2023/11/30 05:38:07;;;;;;;17.60;8.02;;;-3.60;99.90;;;;;;4975751;28;20617;-63
2023/11/30 05:40:32;;;;;;;16.95;8.05;;;-3.70;99.90;;;;;;4979816;28;20042;-64
2023/11/30 05:42:58;;;;;;;15.05;6.75;;;-3.80;99.90;;;;;;4979752;28;20117;-64
2023/11/30 05:45:23;;;;;;;14.45;7.40;;;-3.80;99.90;;;;;;4981264;28;20050;-63
2023/11/30 05:47:49;;;;;;;13.25;7.25;;;-3.90;99.90;;;;;;4981363;28;20450;-64
2023/11/30 05:50:15;;;;;;;17.10;7.35;;;-3.90;99.90;;;;;;4979873;28;20046;-63
2023/11/30 05:52:40;;;;;;;13.55;7.03;;;-4.00;99.90;;;;;;4982418;28;20041;-64
2023/11/30 05:55:07;;;;;;;14.45;7.28;;;-4.00;99.90;;;;;;4983371;28;20039;-64
2023/11/30 05:57:33;;;;;;;18.27;7.57;;;-4.10;99.90;;;;;;4983374;28;20101;-64
2023/11/30 05:59:58;;;;;;;15.80;7.45;;;-4.10;99.90;;;;;;4983601;28;20478;-63
2023/11/30 06:02:26;;;;;;;14.15;6.65;;;-4.20;99.90;;;;;;4984526;28;20096;-64
2023/11/30 06:04:52;;;;;;;15.30;6.85;;;-4.20;99.90;;;;;;4981534;28;20096;-64
2023/11/30 06:07:19;;;;;;;16.25;6.97;;;-4.20;99.90;;;;;;4983344;28;20038;-64
2023/11/30 06:09:44;;;;;;;15.98;6.35;;;-4.30;99.90;;;;;;4983108;28;20069;-63
2023/11/30 06:12:10;;;;;;;12.98;6.18;;;-4.20;99.90;;;;;;4979357;28;20102;-63
2023/11/30 06:14:35;;;;;;;15.18;7.00;;;-4.20;99.90;;;;;;4982718;28;20487;-63
2023/11/30 06:17:01;;;;;;;13.40;6.55;;;-4.20;99.90;;;;;;4982866;28;20034;-63
2023/11/30 06:19:27;;;;;;;13.68;6.22;;;-4.20;99.90;;;;;;4984856;28;20030;-63
2023/11/30 06:21:52;;;;;;;11.43;5.75;;;-4.20;99.90;;;;;;4983175;28;20360;-64
2023/11/30 06:24:18;;;;;;;15.00;6.85;;;-4.10;99.90;;;;;;4983038;28;20038;-63
2023/11/30 06:26:43;;;;;;;14.63;7.18;;;-4.10;99.90;;;;;;4981582;28;20102;-64
2023/11/30 06:29:13;;;;;;;15.93;7.30;;;-4.00;99.90;;;;;;4982882;28;20117;-64
2023/11/30 06:31:39;;;;;;;12.30;5.93;;;-3.90;99.90;;;;;;4981294;28;20030;-64
2023/11/30 06:34:04;;;;;;;14.63;6.60;;;-3.80;99.90;;;;;;4980730;28;20129;-64
2023/11/30 06:36:30;;;;;;;12.13;6.05;;;-3.70;99.90;;;;;;4980058;28;20109;-63
2023/11/30 06:38:56;;;;;;;12.02;6.30;;;-3.60;99.90;;;;;;4977429;28;20066;-63
2023/11/30 06:41:21;;;;;;;15.80;7.05;;;-3.50;99.90;;;;;;4981009;28;20034;-63
2023/11/30 06:43:47;;;;;;;16.05;7.28;;;-3.40;99.90;;;;;;4982632;28;20110;-64
2023/11/30 06:46:20;;;;;;;11.18;5.50;;;-3.30;99.90;;;;;;4982024;28;20046;-64
2023/11/30 06:48:47;;;;;;;18.30;6.88;;;-3.20;99.90;;;;;;4982420;28;20022;-64
2023/11/30 06:51:13;;;;;;;17.17;7.88;;;-3.20;99.90;;;;;;4982447;28;20137;-64
2023/11/30 06:53:38;;;;;;;18.70;7.22;;;-3.10;99.90;;;;;;4984236;28;20042;-64
2023/11/30 06:56:05;;;;;;;14.23;6.90;;;-3.10;99.90;;;;;;4982539;28;20108;-64
2023/11/30 06:58:30;;;;;;;15.30;6.95;;;-3.00;99.90;;;;;;4982235;28;20109;-64
2023/11/30 07:00:56;;;;;;;19.58;8.82;;;-3.00;99.90;;;;;;4981897;28;20458;-63
2023/11/30 07:03:21;;;;;;;18.45;8.15;;;-3.00;99.90;;;;;;4981594;28;20450;-62
2023/11/30 07:05:46;;;;;;;12.30;6.10;;;-2.90;99.90;;;;;;4982074;28;20022;-63
2023/11/30 07:08:12;;;;;;;14.88;7.43;;;-2.90;99.90;;;;;;4982285;28;20065;-63
2023/11/30 07:10:37;;;;;;;21.17;8.48;;;-2.90;99.90;;;;;;4979715;28;20034;-63
2023/11/30 07:13:03;;;;;;;19.23;8.68;;;-2.80;99.90;;;;;;4980352;28;20022;-63
2023/11/30 07:15:28;;;;;;;17.42;8.23;;;-2.80;99.90;;;;;;4978045;28;20599;-63
2023/11/30 07:17:54;;;;;;;14.85;7.88;;;-2.70;99.90;;;;;;4979585;28;20026;-64
2023/11/30 07:20:19;;;;;;;17.83;7.93;;;-2.70;99.90;;;;;;4980432;28;20052;-64
2023/11/30 07:22:45;;;;;;;19.08;9.23;;;-2.60;99.90;;;;;;4980536;28;20038;-64
2023/11/30 07:25:10;;;;;;;24.98;10.15;;;-2.60;99.90;;;;;;4981276;28;20045;-63
2023/11/30 07:27:36;;;;;;;20.65;9.55;;;-2.50;99.90;;;;;;4983055;28;20057;-63
2023/11/30 07:30:01;;;;;;;20.13;9.65;;;-2.50;99.90;;;;;;4976950;28;20347;-64
2023/11/30 07:32:27;;;;;;;23.48;9.35;;;-2.50;99.90;;;;;;4981233;28;20034;-63
2023/11/30 07:34:52;;;;;;;21.35;8.93;;;-2.50;99.90;;;;;;4980514;28;20617;-64
2023/11/30 07:37:21;;;;;;;19.88;9.68;;;-2.40;99.90;;;;;;4977585;28;20030;-63
2023/11/30 07:39:47;;;;;;;22.67;10.35;;;-2.40;99.90;;;;;;4980902;28;20029;-63
2023/11/30 07:42:16;;;;;;;18.77;9.18;;;-2.40;99.90;;;;;;4982578;28;20023;-63
2023/11/30 07:44:42;;;;;;;19.35;9.80;;;-2.30;99.90;;;;;;4979009;28;20049;-64
2023/11/30 07:47:07;;;;;;;20.25;9.55;;;-2.20;99.90;;;;;;4981420;28;20019;-64
2023/11/30 07:49:33;;;;;;;22.63;10.85;;;-2.00;99.90;;;;;;4977013;28;20039;-64
2023/11/30 07:51:58;;;;;;;28.40;11.45;;;-1.90;99.90;;;;;;4980989;28;20185;-63
2023/11/30 07:54:24;;;;;;;19.73;9.77;;;-1.70;99.90;;;;;;4980515;28;20069;-63
2023/11/30 07:56:50;;;;;;;29.65;12.40;;;-1.60;99.90;;;;;;4980982;28;20036;-62
2023/11/30 07:59:15;;;;;;;24.25;11.18;;;-1.60;99.90;;;;;;4982665;28;20039;-63
2023/11/30 08:01:42;;;;;;;23.60;12.07;;;-1.60;99.90;;;;;;4980370;28;20054;-64
2023/11/30 08:04:08;;;;;;;21.60;9.77;;;-1.60;99.90;;;;;;4980462;28;20037;-63
2023/11/30 08:06:34;;;;;;;23.65;11.20;;;-1.60;99.90;;;;;;4980465;28;20034;-63
2023/11/30 08:08:59;;;;;;;25.88;11.55;;;-1.60;99.90;;;;;;4980892;28;20022;-63
2023/11/30 08:11:25;;;;;;;30.35;13.25;;;-1.50;99.90;;;;;;4976118;28;20050;-62
2023/11/30 08:13:50;;;;;;;34.33;14.25;;;-1.50;99.90;;;;;;4980510;28;20520;-64
2023/11/30 08:16:16;;;;;;;34.80;14.30;;;-1.30;99.90;;;;;;4978821;28;20031;-64
2023/11/30 08:18:41;;;;;;;38.70;16.00;;;-1.30;99.90;;;;;;4979257;28;20125;-63
2023/11/30 08:21:07;;;;;;;28.02;13.65;;;-1.20;99.90;;;;;;4980076;28;20454;-63
2023/11/30 08:23:33;;;;;;;30.10;13.82;;;-1.20;99.90;;;;;;4980274;28;20036;-63
2023/11/30 08:25:59;;;;;;;24.98;12.80;;;-1.10;99.90;;;;;;4982204;28;20054;-64
2023/11/30 08:28:25;;;;;;;23.90;13.05;;;-1.00;99.90;;;;;;4977742;28;20062;-63
2023/11/30 08:30:54;;;;;;;28.67;12.02;;;-1.00;99.90;;;;;;4975713;28;20084;-63
2023/11/30 08:33:19;;;;;;;25.58;12.07;;;-0.90;99.90;;;;;;4980661;28;20026;-64
2023/11/30 08:35:45;;;;;;;22.70;11.43;;;-0.80;99.90;;;;;;4977628;28;20113;-53
2023/11/30 08:38:11;;;;;;;19.00;9.65;;;-0.70;99.90;;;;;;4976921;28;20097;-50
2023/11/30 08:40:37;;;;;;;15.68;8.65;;;-0.70;99.90;;;;;;4980275;28;20083;-54
2023/11/30 08:43:02;;;;;;;21.33;9.80;;;-0.60;99.90;;;;;;4978826;28;20026;-54
2023/11/30 08:45:28;;;;;;;22.85;10.82;;;-0.50;99.90;;;;;;4982161;28;20308;-63
2023/11/30 08:47:53;;;;;;;19.60;9.38;;;-0.40;99.90;;;;;;4980187;28;20450;-63
2023/11/30 08:50:19;;;;;;;21.70;10.73;;;-0.30;99.90;;;;;;4980018;28;20279;-63
2023/11/30 08:52:45;;;;;;;24.40;11.60;;;-0.20;99.90;;;;;;4980182;28;20030;-63
2023/11/30 08:55:11;;;;;;;24.23;12.00;;;-0.20;99.90;;;;;;4980000;28;20054;-63
2023/11/30 08:57:36;;;;;;;22.38;10.52;;;-0.10;99.90;;;;;;4979910;28;20038;-63
2023/11/30 09:00:06;;;;;;;21.60;10.30;;;0.00;99.90;;;;;;4980196;28;20402;-63
2023/11/30 09:02:31;;;;;;;20.95;10.35;;;0.00;99.90;;;;;;4981555;28;20211;-63
2023/11/30 09:04:57;;;;;;;20.67;10.32;;;0.10;99.90;;;;;;4979902;28;20185;-64
2023/11/30 09:07:22;;;;;;;19.75;10.60;;;0.10;99.90;;;;;;4979660;28;20085;-64
2023/11/30 09:09:48;;;;;;;20.67;9.77;;;0.20;99.90;;;;;;4976816;28;20414;-64
2023/11/30 09:12:14;;;;;;;21.45;11.45;;;0.30;99.90;;;;;;4980088;28;20034;-65
2023/11/30 09:14:39;;;;;;;20.67;10.88;;;0.30;99.90;;;;;;4979740;28;20108;-65
2023/11/30 09:17:05;;;;;;;52.78;25.25;;;0.40;99.90;;;;;;4979916;28;20022;-64
2023/11/30 09:19:31;;;;;;;26.13;13.45;;;0.40;99.90;;;;;;4981504;28;20062;-64
2023/11/30 09:21:57;;;;;;;23.98;11.77;;;0.50;99.90;;;;;;4979771;28;20293;-64
2023/11/30 09:24:22;;;;;;;28.08;13.77;;;0.50;99.90;;;;;;4979682;28;20140;-64
2023/11/30 09:26:50;;;;;;;29.88;12.95;;;0.50;99.90;;;;;;4981385;28;20270;-64
2023/11/30 09:29:16;;;;;;;22.67;10.73;;;0.60;99.90;;;;;;4983686;28;20398;-64
2023/11/30 09:31:42;;;;;;;20.23;9.63;;;0.60;99.90;;;;;;4982174;28;20046;-64
2023/11/30 09:34:07;;;;;;;21.85;10.90;;;0.60;99.90;;;;;;4985666;28;20031;-64
2023/11/30 09:36:33;;;;;;;21.63;10.40;;;0.60;99.90;;;;;;4976949;28;20125;-66
2023/11/30 09:38:58;;;;;;;20.73;11.27;;;0.60;99.90;;;;;;4983619;28;20030;-60
2023/11/30 09:41:24;;;;;;;22.95;11.10;;;0.70;99.90;;;;;;4981753;28;20465;-55
2023/11/30 09:43:49;;;;;;;20.08;10.73;;;0.70;99.90;;;;;;4983897;28;20030;-68
2023/11/30 09:46:16;;;;;;;19.85;9.57;;;0.80;99.90;;;;;;4983345;28;20180;-72
2023/11/30 09:48:42;;;;;;;17.42;8.95;;;0.80;99.90;;;;;;4985256;28;20490;-73
2023/11/30 09:51:10;;;;;;;17.75;9.88;;;0.90;99.90;;;;;;4983453;28;20022;-72
2023/11/30 09:53:36;;;;;;;24.80;12.40;;;1.00;99.90;;;;;;4983298;28;20458;-72
2023/11/30 09:56:01;;;;;;;27.35;12.45;;;1.10;99.90;;;;;;4983620;28;20026;-72
2023/11/30 09:58:27;;;;;;;26.00;11.88;;;1.20;99.90;;;;;;4983096;28;20038;-71
2023/11/30 10:00:52;;;;;;;22.60;10.82;;;1.20;99.90;;;;;;4983363;28;20022;-73
2023/11/30 10:03:19;;;;;;;21.85;11.65;;;1.30;99.90;;;;;;4983204;28;20474;-71
2023/11/30 10:05:45;;;;;;;21.25;10.88;;;1.40;99.90;;;;;;4981483;28;20022;-71
2023/11/30 10:08:10;;;;;;;23.55;9.75;;;1.40;99.90;;;;;;4978782;28;20337;-71
2023/11/30 10:10:36;;;;;;;19.88;9.63;;;1.40;99.90;;;;;;4980509;28;20022;-70
2023/11/30 10:13:02;;;;;;;18.75;10.20;;;1.50;99.90;;;;;;4980423;28;20049;-70
2023/11/30 10:15:29;;;;;;;18.27;9.38;;;1.50;99.90;;;;;;4980158;28;20034;-70
2023/11/30 10:17:54;;;;;;;19.88;9.85;;;1.50;99.90;;;;;;4980827;28;20034;-70
2023/11/30 10:20:20;;;;;;;19.35;10.45;;;1.50;99.90;;;;;;4980724;28;20576;-70
2023/11/30 10:22:45;;;;;;;18.58;9.43;;;1.50;99.90;;;;;;4976376;28;20036;-71
2023/11/30 10:25:12;;;;;;;19.98;9.80;;;1.50;99.90;;;;;;4980598;28;20778;-70
2023/11/30 10:27:40;;;;;;;20.95;9.95;;;1.50;99.90;;;;;;4979830;28;20511;-70
2023/11/30 10:30:10;;;;;;;18.55;8.90;;;1.60;99.90;;;;;;4980113;28;20061;-70
2023/11/30 10:32:39;;;;;;;16.35;8.90;;;1.60;99.90;;;;;;4980037;28;20528;-71
2023/11/30 10:35:05;;;;;;;16.42;8.75;;;1.70;99.90;;;;;;4980143;28;20119;-70
2023/11/30 10:37:36;;;;;;;31.20;13.10;;;1.80;99.90;;;;;;4975544;28;20108;-70
2023/11/30 10:40:09;;;;;;;23.77;11.95;;;1.90;99.90;;;;;;4979569;28;20030;-69
2023/11/30 10:42:35;;;;;;;22.65;9.75;;;1.90;99.90;;;;;;4979910;28;20346;-70
2023/11/30 10:45:03;;;;;;;15.05;8.73;;;1.90;99.90;;;;;;4980104;28;20042;-70
2023/11/30 10:47:29;;;;;;;17.98;9.55;;;2.00;99.90;;;;;;4980003;28;20043;-69
2023/11/30 10:49:58;;;;;;;17.95;8.63;;;2.00;99.90;;;;;;4975793;28;20033;-70
2023/11/30 10:52:25;;;;;;;17.50;8.93;;;2.00;99.90;;;;;;4981663;28;20186;-69
2023/11/30 10:55:10;;;;;;;16.25;8.02;;;2.00;99.90;;;;;;4980050;28;20034;-70
2023/11/30 10:57:39;;;;;;;14.60;8.60;;;2.00;99.90;;;;;;4979754;28;20034;-69
2023/11/30 11:00:05;;;;;;;19.45;9.52;;;2.10;99.50;;;;;;4979632;28;20487;-69
2023/11/30 11:02:38;;;;;;;16.35;8.05;;;2.00;99.50;;;;;;4979340;28;20033;-69
2023/11/30 11:05:13;;;;;;;15.85;8.63;;;1.90;99.30;;;;;;4979776;28;20077;-69
2023/11/30 11:07:45;;;;;;;19.33;9.27;;;1.90;99.30;;;;;;4979741;28;20034;-70
2023/11/30 11:10:23;;;;;;;13.80;7.95;;;1.80;99.10;;;;;;4972915;28;20053;-69
2023/11/30 11:12:50;;;;;;;15.48;8.77;;;1.60;99.60;;;;;;4979534;28;20070;-70
2023/11/30 11:15:20;;;;;;;14.52;8.23;;;1.60;99.60;;;;;;4978884;28;20126;-69
2023/11/30 11:17:51;;;;;;;14.75;7.82;;;1.50;99.90;;;;;;4979521;28;20026;-70
2023/11/30 11:20:26;;;;;;;15.23;7.68;;;1.40;99.90;;;;;;4979383;28;20026;-70
2023/11/30 11:22:56;;;;;;;16.40;8.20;;;1.40;99.80;;;;;;4977263;28;20170;-69
2023/11/30 11:25:22;;;;;;;11.88;6.88;;;1.40;99.50;;;;;;4979323;28;20197;-67
2023/11/30 11:27:48;;;;;;;12.55;6.32;;;1.30;99.30;;;;;;4978680;28;20030;-70
2023/11/30 11:30:14;;;;;;;12.52;6.60;;;1.30;99.40;;;;;;4979052;28;20022;-70
2023/11/30 11:32:42;;;;;;;12.63;6.30;;;1.20;99.10;;;;;;4979064;28;20034;-69
2023/11/30 11:35:09;;;;;;;12.23;6.53;;;1.10;99.00;;;;;;4981064;28;20594;-70
2023/11/30 11:37:34;;;;;;;11.18;5.88;;;1.10;99.20;;;;;;4967737;28;20026;-70
2023/11/30 11:40:00;;;;;;;12.65;6.55;;;1.00;99.30;;;;;;4975053;28;20510;-69
2023/11/30 11:42:26;;;;;;;14.57;7.40;;;0.90;99.70;;;;;;4978627;28;20105;-69
2023/11/30 11:44:51;;;;;;;14.40;7.68;;;0.80;99.70;;;;;;4978579;28;20125;-69
2023/11/30 11:47:17;;;;;;;13.15;7.55;;;0.80;99.60;;;;;;4973502;28;20138;-68
2023/11/30 11:49:43;;;;;;;15.82;6.72;;;0.80;99.30;;;;;;4976501;28;20019;-69
2023/11/30 11:52:11;;;;;;;11.95;6.55;;;0.90;99.20;;;;;;4978582;28;20346;-69
2023/11/30 11:54:37;;;;;;;14.07;7.20;;;1.10;99.50;;;;;;4978678;28;20034;-69
2023/11/30 11:57:04;;;;;;;12.63;6.95;;;1.20;99.70;;;;;;4978625;28;20117;-69
2023/11/30 11:59:30;;;;;;;10.20;5.43;;;1.30;99.50;;;;;;4978589;28;20030;-69
2023/11/30 12:01:57;;;;;;;12.45;6.97;;;1.40;98.70;;;;;;4978540;28;20033;-69
2023/11/30 12:04:31;;;;;;;14.05;6.78;;;1.40;98.70;;;;;;4978456;28;20044;-68
2023/11/30 12:06:58;;;;;;;11.77;6.13;;;1.40;98.90;;;;;;4978271;28;20625;-69
2023/11/30 12:09:24;;;;;;;10.63;6.75;;;1.40;98.80;;;;;;4978112;28;20508;-69
2023/11/30 12:11:51;;;;;;;12.55;6.80;;;1.40;98.90;;;;;;4978394;28;20039;-68
2023/11/30 12:14:16;;;;;;;14.82;8.07;;;1.30;97.00;;;;;;4979693;28;20022;-69
2023/11/30 12:16:42;;;;;;;11.73;6.85;;;1.20;97.10;;;;;;4978317;28;20093;-69
2023/11/30 12:19:08;;;;;;;16.17;9.05;;;1.10;97.40;;;;;;4973171;28;20050;-69
2023/11/30 12:21:35;;;;;;;17.25;8.40;;;1.00;97.80;;;;;;4978165;28;20120;-68
2023/11/30 12:24:02;;;;;;;18.20;9.52;;;0.90;97.30;;;;;;4979483;28;20026;-68
2023/11/30 12:26:27;;;;;;;15.80;8.90;;;0.80;97.50;;;;;;4978361;28;20109;-68
2023/11/30 12:28:54;;;;;;;17.77;9.40;;;0.70;97.20;;;;;;4981092;28;20484;-69
2023/11/30 12:31:21;;;;;;;16.05;8.60;;;0.60;97.20;;;;;;4981570;28;20035;-69
2023/11/30 12:33:46;;;;;;;16.38;8.35;;;0.60;96.90;;;;;;4980560;28;20105;-68